createdAt,value
2022-12-01T00:01:04.635Z,101047.16
2022-12-01T00:03:35.787Z,101046.81
2022-12-01T00:06:18.095Z,101054.56
2022-12-01T00:09:09.198Z,101051.69
2022-12-01T00:11:40.145Z,101054.72
2022-12-01T00:14:10.700Z,101038.34
2022-12-01T00:16:42.097Z,101043.06
2022-12-01T00:19:13.183Z,101045.09
2022-12-01T00:21:43.769Z,101048.78
2022-12-01T00:24:14.827Z,101062.75
2022-12-01T00:26:45.099Z,101059.66
2022-12-01T00:29:15.532Z,101067.91
2022-12-01T00:31:46.341Z,101072.28
2022-12-01T00:34:24.754Z,101074.28
2022-12-01T00:36:55.484Z,101084.88
2022-12-01T00:39:26.426Z,101084.38
2022-12-01T00:41:56.816Z,101082.34
2022-12-01T00:44:27.207Z,101084.03
2022-12-01T00:47:00.125Z,101091.75
2022-12-01T00:49:31.056Z,101084.00
2022-12-01T00:52:01.577Z,101087.84
2022-12-01T00:54:33.336Z,101087.34
2022-12-01T00:57:03.831Z,101097.63
2022-12-01T00:59:34.629Z,101085.66
2022-12-01T01:02:06.894Z,101084.00
2022-12-01T01:04:38.666Z,101089.38
2022-12-01T01:07:09.429Z,101085.66
2022-12-01T01:09:40.087Z,101087.03
2022-12-01T01:12:10.558Z,101083.31
2022-12-01T01:14:41.133Z,101074.22
2022-12-01T01:17:11.411Z,101071.81
2022-12-01T01:19:41.633Z,101059.84
2022-12-01T01:22:12.001Z,101066.06
2022-12-01T01:24:46.941Z,101066.06
2022-12-01T01:27:20.468Z,101074.81
2022-12-01T01:29:51.299Z,101085.59
2022-12-01T01:32:21.909Z,101083.91
2022-12-01T01:34:52.781Z,101085.59
2022-12-01T01:37:23.278Z,101085.25
2022-12-01T01:39:53.636Z,101082.53
2022-12-01T01:42:24.864Z,101086.09
2022-12-01T01:44:56.391Z,101086.56
2022-12-01T01:47:30.794Z,101081.84
2022-12-01T01:50:07.352Z,101079.66
2022-12-01T01:52:52.705Z,101074.06
2022-12-01T01:55:23.281Z,101067.28
2022-12-01T01:57:56.144Z,101054.47
2022-12-01T02:00:29.510Z,101055.78
2022-12-01T02:03:02.443Z,101064.19
2022-12-01T02:05:34.754Z,101073.97
2022-12-01T02:08:05.945Z,101067.84
2022-12-01T02:11:00.219Z,101048.28
2022-12-01T02:13:43.695Z,101055.34
2022-12-01T02:16:31.875Z,101054.63
2022-12-01T02:19:25.075Z,101046.53
2022-12-01T02:21:55.589Z,101039.28
2022-12-01T02:24:51.131Z,101038.38
2022-12-01T02:27:39.374Z,101035.69
2022-12-01T02:30:29.707Z,101036.50
2022-12-01T02:33:06.270Z,101029.25
2022-12-01T02:36:05.894Z,101023.31
2022-12-01T02:38:54.838Z,101021.75
2022-12-01T02:41:32.787Z,101015.03
2022-12-01T02:44:22.722Z,101010.03
2022-12-01T02:47:00.177Z,101004.16
2022-12-01T02:49:39.519Z,101007.81
2022-12-01T02:52:13.255Z,101014.53
2022-12-01T02:54:47.014Z,101006.06
2022-12-01T02:57:20.531Z,100997.59
2022-12-01T02:59:53.341Z,101000.94
2022-12-01T03:03:01.932Z,100990.75
2022-12-01T03:05:55.103Z,100988.31
2022-12-01T03:08:46.958Z,100985.91
2022-12-01T03:11:43.654Z,100980.88
2022-12-01T03:14:41.816Z,100987.28
2022-12-01T03:17:18.688Z,100976.91
2022-12-01T03:19:55.082Z,100968.72
2022-12-01T03:22:34.779Z,100967.59
2022-12-01T03:25:05.897Z,100957.28
2022-12-01T03:27:44.085Z,100959.41
2022-12-01T03:30:21.571Z,100960.41
2022-12-01T03:32:56.408Z,100954.63
2022-12-01T03:35:43.032Z,100952.19
2022-12-01T03:38:28.812Z,100951.81
2022-12-01T03:41:03.077Z,100944.09
2022-12-01T03:43:35.593Z,100935.88
2022-12-01T03:46:33.942Z,100934.72
2022-12-01T03:49:06.526Z,100927.63
2022-12-01T03:51:52.411Z,100926.69
2022-12-01T03:54:47.639Z,100930.22
2022-12-01T03:57:31.629Z,100921.50
2022-12-01T04:00:03.307Z,100919.00
2022-12-01T04:02:42.434Z,100905.50
2022-12-01T04:05:14.375Z,100899.50
2022-12-01T04:07:45.762Z,100894.53
2022-12-01T04:10:16.212Z,100882.59
2022-12-01T04:12:46.702Z,100879.28
2022-12-01T04:15:18.707Z,100875.81
2022-12-01T04:17:48.931Z,100881.03
2022-12-01T04:20:19.780Z,100876.66
2022-12-01T04:22:50.545Z,100871.88
2022-12-01T04:25:21.369Z,100852.94
2022-12-01T04:27:52.585Z,100854.84
2022-12-01T04:30:22.815Z,100845.72
2022-12-01T04:32:53.332Z,100835.78
2022-12-01T04:35:24.402Z,100820.59
2022-12-01T04:37:57.931Z,100817.94
2022-12-01T04:40:28.716Z,100820.53
2022-12-01T04:42:59.252Z,100806.78
2022-12-01T04:45:29.806Z,100802.22
2022-12-01T04:48:00.674Z,100799.59
2022-12-01T04:50:32.865Z,100791.50
2022-12-01T04:53:03.178Z,100786.31
2022-12-01T04:55:33.741Z,100786.09
2022-12-01T04:58:05.937Z,100790.06
2022-12-01T05:00:36.550Z,100798.66
2022-12-01T05:03:12.113Z,100783.88
2022-12-01T05:05:45.442Z,100782.63
2022-12-01T05:08:16.013Z,100773.69
2022-12-01T05:10:46.887Z,100766.59
2022-12-01T05:13:17.284Z,100761.19
2022-12-01T05:15:49.729Z,100765.75
2022-12-01T05:18:21.331Z,100759.72
2022-12-01T05:21:00.584Z,100760.34
2022-12-01T05:23:33.513Z,100762.22
2022-12-01T05:26:06.219Z,100743.69
2022-12-01T05:28:37.242Z,100737.44
2022-12-01T05:31:10.694Z,100729.53
2022-12-01T05:33:41.732Z,100725.53
2022-12-01T05:36:12.723Z,100726.78
2022-12-01T05:38:43.587Z,100744.47
2022-12-01T05:41:14.524Z,100750.56
2022-12-01T05:43:45.115Z,100732.84
2022-12-01T05:46:15.664Z,100729.44
2022-12-01T05:48:46.654Z,100724.84
2022-12-01T05:51:18.664Z,100729.44
2022-12-01T05:53:52.548Z,100729.22
2022-12-01T05:56:22.844Z,100702.69
2022-12-01T05:58:53.803Z,100690.97
2022-12-01T06:01:24.624Z,100688.00
2022-12-01T06:03:55.908Z,100691.28
2022-12-01T06:06:26.288Z,100691.44
2022-12-01T06:08:57.117Z,100698.28
2022-12-01T06:11:27.715Z,100692.44
2022-12-01T06:13:58.329Z,100693.31
2022-12-01T06:16:29.460Z,100696.88
2022-12-01T06:19:00.213Z,100687.47
2022-12-01T06:21:30.841Z,100692.16
2022-12-01T06:24:01.615Z,100691.34
2022-12-01T06:26:32.088Z,100685.13
2022-12-01T06:29:03.299Z,100683.09
2022-12-01T06:31:33.617Z,100676.22
2022-12-01T06:34:03.975Z,100696.03
2022-12-01T06:36:35.071Z,100684.31
2022-12-01T06:39:11.465Z,100686.59
2022-12-01T06:41:42.818Z,100673.47
2022-12-01T06:44:13.358Z,100674.69
2022-12-01T06:46:44.828Z,100675.88
2022-12-01T06:49:15.341Z,100669.16
2022-12-01T06:51:46.187Z,100675.69
2022-12-01T06:54:18.796Z,100678.88
2022-12-01T06:56:49.421Z,100680.63
2022-12-01T06:59:20.939Z,100678.34
2022-12-01T07:01:52.285Z,100683.81
2022-12-01T07:04:22.692Z,100680.72
2022-12-01T07:06:53.273Z,100667.38
2022-12-01T07:09:23.655Z,100664.88
2022-12-01T07:11:54.087Z,100677.78
2022-12-01T07:14:27.557Z,100661.53
2022-12-01T07:16:57.944Z,100656.31
2022-12-01T07:19:28.647Z,100648.63
2022-12-01T07:21:58.958Z,100647.78
2022-12-01T07:24:29.578Z,100657.56
2022-12-01T07:27:02.888Z,100659.06
2022-12-01T07:29:33.541Z,100662.38
2022-12-01T07:32:03.730Z,100665.50
2022-12-01T07:34:34.650Z,100661.56
2022-12-01T07:37:04.958Z,100667.16
2022-12-01T07:39:35.819Z,100673.59
2022-12-01T07:42:07.480Z,100669.22
2022-12-01T07:44:37.982Z,100676.09
2022-12-01T07:47:08.788Z,100678.41
2022-12-01T07:49:39.925Z,100684.00
2022-12-01T07:52:10.531Z,100696.06
2022-12-01T07:54:41.260Z,100698.13
2022-12-01T07:57:15.721Z,100697.72
2022-12-01T07:59:46.809Z,100707.31
2022-12-01T08:02:17.699Z,100705.19
2022-12-01T08:04:48.975Z,100721.84
2022-12-01T08:07:19.767Z,100720.97
2022-12-01T08:09:50.579Z,100723.09
2022-12-01T08:12:21.527Z,100723.09
2022-12-01T08:14:52.005Z,100718.09
2022-12-01T08:17:23.167Z,100718.44
2022-12-01T08:19:56.511Z,100726.75
2022-12-01T08:22:30.691Z,100725.94
2022-12-01T08:25:04.911Z,100722.16
2022-12-01T08:27:36.004Z,100730.66
2022-12-01T08:30:08.319Z,100730.88
2022-12-01T08:32:39.036Z,100729.22
2022-12-01T08:35:11.592Z,100726.28
2022-12-01T08:37:42.143Z,100731.69
2022-12-01T08:40:13.050Z,100732.31
2022-12-01T08:42:43.865Z,100729.16
2022-12-01T08:45:15.143Z,100733.13
2022-12-01T08:47:46.025Z,100743.72
2022-12-01T08:50:16.512Z,100748.47
2022-12-01T08:52:47.579Z,100756.38
2022-12-01T08:55:18.070Z,100759.31
2022-12-01T08:57:49.144Z,100755.31
2022-12-01T09:00:22.657Z,100753.66
2022-12-01T09:02:52.979Z,100765.50
2022-12-01T09:05:23.900Z,100765.69
2022-12-01T09:08:14.374Z,100763.19
2022-12-01T09:10:53.449Z,100772.75
2022-12-01T09:13:24.375Z,100782.94
2022-12-01T09:16:15.851Z,100791.28
2022-12-01T09:18:47.804Z,100799.50
2022-12-01T09:21:23.722Z,100808.84
2022-12-01T09:24:03.263Z,100806.78
2022-12-01T09:26:34.366Z,100797.56
2022-12-01T09:29:10.197Z,100802.16
2022-12-01T09:31:41.317Z,100799.66
2022-12-01T09:34:15.270Z,100798.41
2022-12-01T09:36:46.030Z,100803.81
2022-12-01T09:39:22.821Z,100813.34
2022-12-01T09:42:02.876Z,100817.94
2022-12-01T09:44:54.074Z,100820.03
2022-12-01T09:47:32.501Z,100821.69
2022-12-01T09:50:12.030Z,100826.69
2022-12-01T09:52:49.148Z,100833.28
2022-12-01T09:55:21.697Z,100828.25
2022-12-01T09:57:54.928Z,100835.34
2022-12-01T10:00:29.154Z,100821.91
2022-12-01T10:03:34.753Z,100816.66
2022-12-01T10:06:27.109Z,100818.28
2022-12-01T10:09:18.414Z,100820.78
2022-12-01T10:11:49.661Z,100833.22
2022-12-01T10:14:23.001Z,100847.13
2022-12-01T10:17:12.857Z,100863.91
2022-12-01T10:20:04.494Z,100888.25
2022-12-01T10:22:51.635Z,100898.03
2022-12-01T10:25:23.825Z,100902.16
2022-12-01T10:28:11.850Z,100911.88
2022-12-01T10:30:52.079Z,100904.53
2022-12-01T10:33:31.869Z,100898.41
2022-12-01T10:36:02.474Z,100897.56
2022-12-01T10:38:38.422Z,100893.56
2022-12-01T10:41:13.682Z,100898.34
2022-12-01T10:43:52.901Z,100903.09
2022-12-01T10:46:35.257Z,100889.59
2022-12-01T10:49:12.090Z,100897.28
2022-12-01T10:51:58.314Z,100875.44
2022-12-01T10:54:40.886Z,100870.03
2022-12-01T10:57:18.745Z,100870.81
2022-12-01T10:59:59.642Z,100886.91
2022-12-01T11:02:31.690Z,100895.84
2022-12-01T11:05:20.308Z,100895.66
2022-12-01T11:07:51.435Z,100909.16
2022-12-01T11:10:25.926Z,100917.19
2022-12-01T11:13:21.387Z,100924.06
2022-12-01T11:16:00.534Z,100938.41
2022-12-01T11:18:39.427Z,100940.25
2022-12-01T11:21:29.856Z,100950.00
2022-12-01T11:24:00.166Z,100958.84
2022-12-01T11:26:34.098Z,100958.84
2022-12-01T11:29:06.510Z,100963.69
2022-12-01T11:31:48.517Z,100971.13
2022-12-01T11:34:28.700Z,100975.97
2022-12-01T11:37:05.486Z,100972.53
2022-12-01T11:39:36.293Z,100962.38
2022-12-01T11:42:21.224Z,100960.69
2022-12-01T11:45:07.316Z,100960.84
2022-12-01T11:48:16.390Z,100965.53
2022-12-01T11:51:07.379Z,100972.59
2022-12-01T11:53:43.725Z,100972.22
2022-12-01T11:56:30.619Z,100973.69
2022-12-01T11:59:06.560Z,100975.44
2022-12-01T12:02:12.495Z,100982.44
2022-12-01T12:05:23.675Z,100985.81
2022-12-01T12:08:35.048Z,100977.22
2022-12-01T12:11:14.478Z,100983.28
2022-12-01T12:13:59.847Z,100983.28
2022-12-01T12:16:39.422Z,100989.81
2022-12-01T12:19:22.405Z,101004.50
2022-12-01T12:22:25.663Z,101015.28
2022-12-01T12:25:20.765Z,101006.16
2022-12-01T12:28:19.509Z,101004.13
2022-12-01T12:30:50.999Z,100998.06
2022-12-01T12:33:57.792Z,101002.44
2022-12-01T12:36:37.920Z,100987.28
2022-12-01T12:39:27.936Z,100992.88
2022-12-01T12:41:59.055Z,100967.59
2022-12-01T12:45:00.615Z,100964.22
2022-12-01T12:47:54.430Z,100955.47
2022-12-01T12:50:33.961Z,100956.50
2022-12-01T12:53:11.429Z,100956.31
2022-12-01T12:55:44.766Z,100953.97
2022-12-01T12:58:17.746Z,100947.75
2022-12-01T13:01:15.247Z,100941.50
2022-12-01T13:04:17.559Z,100953.97
2022-12-01T13:06:52.852Z,100946.59
2022-12-01T13:09:45.265Z,100944.91
2022-12-01T13:12:36.018Z,100969.19
2022-12-01T13:15:20.363Z,100950.31
2022-12-01T13:18:19.873Z,100973.28
2022-12-01T13:20:52.169Z,100961.47
2022-12-01T13:23:23.678Z,100957.75
2022-12-01T13:25:56.746Z,100968.38
2022-12-01T13:28:41.576Z,100977.94
2022-12-01T13:31:15.527Z,100975.91
2022-12-01T13:34:04.056Z,100978.59
2022-12-01T13:36:50.438Z,100978.97
2022-12-01T13:39:30.819Z,100995.13
2022-12-01T13:42:09.250Z,101002.88
2022-12-01T13:44:44.702Z,101016.34
2022-12-01T13:47:18.429Z,101020.06
2022-12-01T13:49:52.914Z,101028.16
2022-12-01T13:52:23.624Z,101020.06
2022-12-01T13:55:08.906Z,101016.50
2022-12-01T13:57:44.901Z,101012.41
2022-12-01T14:00:35.785Z,101021.38
2022-12-01T14:03:22.035Z,101024.38
2022-12-01T14:06:00.855Z,101027.72
2022-12-01T14:08:35.052Z,101020.66
2022-12-01T14:11:21.360Z,101000.38
2022-12-01T14:14:05.771Z,100999.50
2022-12-01T14:16:50.563Z,101001.19
2022-12-01T14:19:47.656Z,100989.19
2022-12-01T14:22:40.724Z,101000.00
2022-12-01T14:25:23.449Z,100996.00
2022-12-01T14:27:59.049Z,100990.59
2022-12-01T14:30:42.840Z,100993.81
2022-12-01T14:33:45.972Z,100990.59
2022-12-01T14:36:25.685Z,100994.97
2022-12-01T14:38:59.138Z,100999.22
2022-12-01T14:41:34.862Z,101001.75
2022-12-01T14:44:34.809Z,100990.97
2022-12-01T14:47:38.898Z,100979.16
2022-12-01T14:50:18.278Z,100981.34
2022-12-01T14:52:55.102Z,100974.94
2022-12-01T14:55:33.082Z,100968.72
2022-12-01T14:58:07.415Z,100966.19
2022-12-01T15:00:39.674Z,100981.06
2022-12-01T15:03:13.901Z,100982.94
2022-12-01T15:05:45.333Z,100975.88
2022-12-01T15:08:53.225Z,100962.84
2022-12-01T15:11:26.635Z,100959.03
2022-12-01T15:14:01.569Z,100956.50
2022-12-01T15:16:33.658Z,100940.88
2022-12-01T15:19:04.545Z,100931.91
2022-12-01T15:21:37.939Z,100903.47
2022-12-01T15:24:23.154Z,100916.94
2022-12-01T15:27:03.685Z,100921.50
2022-12-01T15:29:45.729Z,100922.34
2022-12-01T15:32:19.551Z,100931.47
2022-12-01T15:34:53.193Z,100924.75
2022-12-01T15:37:27.537Z,100921.03
2022-12-01T15:40:54.012Z,100914.81
2022-12-01T15:43:25.006Z,100906.16
2022-12-01T15:46:02.202Z,100899.47
2022-12-01T15:48:35.646Z,100902.00
2022-12-01T15:51:28.754Z,100910.75
2022-12-01T15:54:00.654Z,100912.78
2022-12-01T15:56:32.171Z,100914.53
2022-12-01T15:59:11.831Z,100922.63
2022-12-01T16:01:45.079Z,100913.41
2022-12-01T16:04:24.429Z,100913.59
2022-12-01T16:07:02.074Z,100912.09
2022-12-01T16:09:42.371Z,100908.84
2022-12-01T16:12:18.876Z,100903.09
2022-12-01T16:15:19.211Z,100889.16
2022-12-01T16:17:52.082Z,100896.28
2022-12-01T16:20:43.225Z,100907.72
2022-12-01T16:23:20.014Z,100901.84
2022-12-01T16:25:52.928Z,100891.72
2022-12-01T16:28:37.918Z,100884.66
2022-12-01T16:31:13.945Z,100881.66
2022-12-01T16:33:47.537Z,100881.00
2022-12-01T16:36:20.407Z,100890.78
2022-12-01T16:38:54.397Z,100891.97
2022-12-01T16:41:37.919Z,100890.09
2022-12-01T16:46:59.413Z,100879.22
2022-12-01T16:49:30.261Z,100871.88
2022-12-01T16:52:11.104Z,100875.22
2022-12-01T16:54:46.290Z,100867.69
2022-12-01T16:57:18.292Z,100870.88
2022-12-01T16:59:48.961Z,100870.06
2022-12-01T17:02:19.286Z,100859.28
2022-12-01T17:04:50.417Z,100855.63
2022-12-01T17:07:21.631Z,100860.34
2022-12-01T17:09:52.287Z,100859.34
2022-12-01T17:12:26.258Z,100850.75
2022-12-01T17:14:56.794Z,100845.56
2022-12-01T17:17:27.205Z,100852.34
2022-12-01T17:19:57.855Z,100846.59
2022-12-01T17:22:28.143Z,100848.63
2022-12-01T17:24:58.464Z,100846.94
2022-12-01T17:27:28.666Z,100849.81
2022-12-01T17:30:02.644Z,100839.56
2022-12-01T17:32:33.492Z,100829.81
2022-12-01T17:35:04.452Z,100815.03
2022-12-01T17:37:34.715Z,100823.13
2022-12-01T17:40:08.017Z,100826.81
2022-12-01T17:42:38.657Z,100825.31
2022-12-01T17:45:09.876Z,100823.63
2022-12-01T17:47:40.530Z,100820.78
2022-12-01T17:50:11.440Z,100816.75
2022-12-01T17:52:41.915Z,100805.63
2022-12-01T17:55:12.931Z,100790.50
2022-12-01T17:57:43.544Z,100789.84
2022-12-01T18:00:14.730Z,100779.41
2022-12-01T18:02:45.109Z,100790.19
2022-12-01T18:05:16.029Z,100773.38
2022-12-01T18:07:47.055Z,100771.69
2022-12-01T18:10:17.450Z,100770.03
2022-12-01T18:12:48.357Z,100761.09
2022-12-01T18:15:19.689Z,100764.63
2022-12-01T18:17:50.334Z,100761.28
2022-12-01T18:20:20.953Z,100754.22
2022-12-01T18:22:51.727Z,100755.22
2022-12-01T18:25:22.470Z,100748.19
2022-12-01T18:27:59.223Z,100754.56
2022-12-01T18:30:30.580Z,100753.56
2022-12-01T18:33:01.698Z,100760.97
2022-12-01T18:35:32.274Z,100755.75
2022-12-01T18:38:02.832Z,100753.91
2022-12-01T18:40:33.476Z,100749.88
2022-12-01T18:43:04.097Z,100755.81
2022-12-01T18:45:34.538Z,100759.16
2022-12-01T18:48:06.683Z,100750.25
2022-12-01T18:50:37.148Z,100749.56
2022-12-01T18:53:07.852Z,100755.81
2022-12-01T18:55:39.035Z,100760.34
2022-12-01T18:58:09.755Z,100760.34
2022-12-01T19:00:40.392Z,100749.56
2022-12-01T19:03:11.344Z,100759.53
2022-12-01T19:05:42.461Z,100753.47
2022-12-01T19:08:12.937Z,100767.75
2022-12-01T19:10:43.327Z,100757.00
2022-12-01T19:13:14.022Z,100755.31
2022-12-01T19:15:45.021Z,100750.78
2022-12-01T19:18:17.604Z,100748.63
2022-12-01T19:20:48.270Z,100754.00
2022-12-01T19:23:19.083Z,100744.91
2022-12-01T19:25:49.354Z,100747.28
2022-12-01T19:28:19.669Z,100748.97
2022-12-01T19:30:50.787Z,100755.38
2022-12-01T19:33:21.478Z,100763.44
2022-12-01T19:35:51.689Z,100754.34
2022-12-01T19:38:22.338Z,100753.03
2022-12-01T19:40:53.695Z,100767.72
2022-12-01T19:43:24.197Z,100767.50
2022-12-01T19:45:55.662Z,100782.84
2022-12-01T19:48:26.233Z,100773.75
2022-12-01T19:50:56.651Z,100764.81
2022-12-01T19:53:31.991Z,100760.09
2022-12-01T19:56:06.224Z,100758.78
2022-12-01T19:58:39.825Z,100758.78
2022-12-01T20:01:13.116Z,100755.06
2022-12-01T20:03:47.439Z,100761.81
2022-12-01T20:06:20.535Z,100765.88
2022-12-01T20:08:51.963Z,100768.22
2022-12-01T20:11:22.738Z,100760.81
2022-12-01T20:13:53.307Z,100779.84
2022-12-01T20:16:26.087Z,100759.97
2022-12-01T20:18:56.839Z,100763.19
2022-12-01T20:21:33.329Z,100756.47
2022-12-01T20:24:08.395Z,100764.56
2022-12-01T20:26:41.965Z,100767.25
2022-12-01T20:29:25.382Z,100766.22
2022-12-01T20:31:58.619Z,100760.19
2022-12-01T20:34:35.426Z,100765.75
2022-12-01T20:37:06.672Z,100768.47
2022-12-01T20:39:39.161Z,100765.56
2022-12-01T20:42:11.821Z,100775.69
2022-12-01T20:44:42.421Z,100774.00
2022-12-01T20:47:13.044Z,100775.69
2022-12-01T20:49:43.752Z,100783.94
2022-12-01T20:52:15.545Z,100787.28
2022-12-01T20:54:46.964Z,100793.50
2022-12-01T20:57:17.656Z,100795.53
2022-12-01T20:59:48.435Z,100793.72
2022-12-01T21:02:18.949Z,100796.41
2022-12-01T21:04:50.179Z,100799.28
2022-12-01T21:07:21.665Z,100806.34
2022-12-01T21:09:52.212Z,100811.72
2022-12-01T21:12:40.624Z,100812.72
2022-12-01T21:15:16.319Z,100815.41
2022-12-01T21:17:54.594Z,100819.97
2022-12-01T21:20:52.409Z,100808.00
2022-12-01T21:23:23.034Z,100816.44
2022-12-01T21:25:53.465Z,100815.09
2022-12-01T21:28:27.919Z,100812.06
2022-12-01T21:31:17.527Z,100824.50
2022-12-01T21:33:48.520Z,100821.34
2022-12-01T21:36:21.108Z,100829.41
2022-12-01T21:38:56.796Z,100833.63
2022-12-01T21:41:33.084Z,100844.03
2022-12-01T21:44:16.322Z,100841.34
2022-12-01T21:46:47.385Z,100851.75
2022-12-01T21:49:23.137Z,100847.56
2022-12-01T21:51:54.778Z,100853.78
2022-12-01T21:54:25.293Z,100850.75
2022-12-01T21:56:58.630Z,100856.47
2022-12-01T21:59:31.761Z,100850.75
2022-12-01T22:02:32.647Z,100849.91
2022-12-01T22:05:04.063Z,100850.75
2022-12-01T22:07:34.313Z,100856.97
2022-12-01T22:10:42.634Z,100870.94
2022-12-01T22:13:13.119Z,100872.25
2022-12-01T22:15:44.072Z,100880.53
2022-12-01T22:18:40.301Z,100894.13
2022-12-01T22:21:36.149Z,100890.97
2022-12-01T22:24:09.889Z,100890.44
2022-12-01T22:26:48.811Z,100888.75
2022-12-01T22:29:29.923Z,100898.00
2022-12-01T22:32:15.389Z,100898.34
2022-12-01T22:35:00.980Z,100890.78
2022-12-01T22:37:47.661Z,100888.25
2022-12-01T22:40:39.118Z,100897.47
2022-12-01T22:43:18.856Z,100892.97
2022-12-01T22:45:55.975Z,100901.03
2022-12-01T22:48:29.356Z,100912.63
2022-12-01T22:51:23.048Z,100901.53
2022-12-01T22:53:59.496Z,100894.84
2022-12-01T22:56:51.728Z,100911.94
2022-12-01T22:59:30.927Z,100904.56
2022-12-01T23:02:03.913Z,100895.19
2022-12-01T23:04:40.320Z,100897.22
2022-12-01T23:07:34.947Z,100910.97
2022-12-01T23:10:24.219Z,100913.66
2022-12-01T23:12:55.847Z,100912.00
2022-12-01T23:15:28.945Z,100931.50
2022-12-01T23:18:17.242Z,100923.22
2022-12-01T23:20:52.745Z,100920.69
2022-12-01T23:23:28.414Z,100948.63
2022-12-01T23:26:02.318Z,100943.06
2022-12-01T23:28:32.980Z,100937.50
2022-12-01T23:31:03.531Z,100935.50
2022-12-01T23:33:36.157Z,100951.97
2022-12-01T23:36:15.803Z,100962.72
2022-12-01T23:38:48.491Z,100958.72
2022-12-01T23:41:26.122Z,100972.19
2022-12-01T23:43:57.447Z,100976.38
2022-12-01T23:46:29.362Z,100984.63
2022-12-01T23:49:03.035Z,100988.47
2022-12-01T23:51:39.156Z,100994.00
2022-12-01T23:54:34.110Z,100991.34
2022-12-01T23:57:11.233Z,101003.41
2022-12-01T23:59:54.844Z,101006.09
